Time;durP1;ratioP1;P1;durP2;ratioP2;P2;SDS_P1;SDS_P2;PMS_P1;PMS_P2;Temp;Humidity;BMP_temperature;BMP_pressure;BME280_temperature;BME280_humidity;BME280_pressure;Samples;Min_cycle;Max_cycle;Signal;HPM_P1;HPM_P2
2023/04/11 00:02:04;;;;;;;15.13;9.07;;;4.60;99.90;3.80;100503;;;;575654;244;35180;-74
2023/04/11 00:04:33;;;;;;;10.73;6.67;;;4.60;99.90;3.80;100501;;;;579413;244;24131;-75
2023/04/11 00:07:00;;;;;;;8.70;5.47;;;4.60;99.90;3.80;100507;;;;577572;244;24082;-74
2023/04/11 00:09:28;;;;;;;8.10;5.67;;;4.60;99.90;3.80;100501;;;;587403;244;24098;-75
2023/04/11 00:11:56;;;;;;;9.73;5.67;;;4.60;99.90;3.70;100495;;;;580718;244;24048;-74
2023/04/11 00:14:27;;;;;;;9.23;5.33;;;4.60;99.90;3.70;100493;;;;580498;244;24096;-75
2023/04/11 00:16:52;;;;;;;10.00;6.33;;;4.60;99.90;3.70;100494;;;;580238;244;24065;-74
2023/04/11 00:19:24;;;;;;;5.30;4.43;;;4.60;99.90;3.70;100490;;;;580440;244;24080;-75
2023/04/11 00:21:51;;;;;;;8.67;5.63;;;4.60;99.90;3.70;100477;;;;582775;244;24081;-74
2023/04/11 00:24:18;;;;;;;7.10;5.53;;;4.60;99.90;3.80;100472;;;;580452;244;24060;-75
2023/04/11 00:26:46;;;;;;;7.53;5.67;;;4.60;99.90;3.80;100465;;;;582898;244;24072;-75
2023/04/11 00:29:14;;;;;;;6.87;5.47;;;4.60;99.90;3.80;100461;;;;579891;244;24086;-77
2023/04/11 00:31:42;;;;;;;9.33;6.77;;;4.70;99.90;3.90;100466;;;;580036;244;24171;-76
2023/04/11 00:34:10;;;;;;;11.57;5.90;;;4.70;99.90;3.80;100462;;;;580151;244;24166;-75
2023/04/11 00:36:40;;;;;;;12.33;6.20;;;4.70;99.90;3.80;100458;;;;580062;244;24082;-74
2023/04/11 00:39:06;;;;;;;8.67;5.33;;;4.70;99.90;3.80;100460;;;;580168;244;24150;-73
2023/04/11 00:41:34;;;;;;;7.47;5.40;;;4.70;99.90;3.80;100452;;;;580098;244;24145;-74
2023/04/11 00:44:02;;;;;;;12.87;6.40;;;4.60;99.90;3.70;100454;;;;582399;244;24097;-75
2023/04/11 00:46:30;;;;;;;8.30;5.27;;;4.60;99.90;3.70;100448;;;;580167;244;24131;-74
2023/04/11 00:48:59;;;;;;;14.27;5.87;;;4.50;99.90;3.60;100436;;;;589256;242;24082;-73
2023/04/11 00:51:27;;;;;;;8.07;6.13;;;4.50;99.90;3.60;100442;;;;581486;243;24083;-74
2023/04/11 00:53:54;;;;;;;10.53;6.23;;;4.50;99.90;3.60;100434;;;;580961;243;24077;-75
2023/04/11 00:56:22;;;;;;;10.17;5.97;;;4.50;99.90;3.70;100421;;;;583677;243;24054;-74
2023/04/11 00:58:55;;;;;;;14.18;9.35;;;4.50;99.90;3.70;100426;;;;575682;243;35200;-74
2023/04/11 01:01:22;;;;;;;11.47;7.03;;;4.50;99.90;3.60;100416;;;;580319;243;24225;-74
2023/04/11 01:03:47;;;;;;;10.87;6.03;;;4.50;99.90;3.60;100422;;;;580658;243;24107;-74
2023/04/11 01:06:18;;;;;;;12.40;6.17;;;4.50;99.90;3.70;100403;;;;580607;243;24047;-74
2023/04/11 01:08:43;;;;;;;13.07;6.67;;;4.50;99.90;3.70;100409;;;;580273;244;24108;-75
2023/04/11 01:11:11;;;;;;;11.67;5.80;;;4.50;99.90;3.70;100405;;;;580393;244;24058;-76
2023/04/11 01:13:41;;;;;;;14.40;7.87;;;4.50;99.90;3.60;100402;;;;580164;244;24117;-76
2023/04/11 01:16:10;;;;;;;13.03;7.30;;;4.50;99.90;3.60;100401;;;;580397;244;24205;-74
2023/04/11 01:18:38;;;;;;;12.47;7.13;;;4.50;99.90;3.60;100396;;;;577220;244;24095;-75
2023/04/11 01:21:06;;;;;;;11.67;6.60;;;4.50;99.90;3.60;100396;;;;580484;244;24124;-75
2023/04/11 01:23:34;;;;;;;10.73;6.40;;;4.50;99.90;3.60;100398;;;;580372;244;24063;-75
2023/04/11 01:26:02;;;;;;;13.33;6.87;;;4.50;99.90;3.60;100394;;;;580351;244;24083;-75
2023/04/11 01:28:30;;;;;;;12.67;6.53;;;4.50;99.90;3.60;100390;;;;580510;244;24062;-76
2023/04/11 01:30:58;;;;;;;14.30;6.53;;;4.50;99.90;3.60;100393;;;;580475;244;24067;-75
2023/04/11 01:33:26;;;;;;;9.10;6.10;;;4.50;99.90;3.60;100391;;;;580505;244;24060;-76
2023/04/11 01:35:55;;;;;;;14.17;6.20;;;4.40;99.90;3.60;100392;;;;580541;244;24103;-75
2023/04/11 01:38:23;;;;;;;10.07;5.70;;;4.40;99.90;3.60;100395;;;;580426;244;24114;-75
2023/04/11 01:40:54;;;;;;;10.00;6.17;;;4.40;99.90;3.50;100377;;;;580556;244;24131;-74
2023/04/11 01:43:21;;;;;;;8.57;6.30;;;4.40;99.90;3.50;100377;;;;580366;244;24109;-74
2023/04/11 01:45:50;;;;;;;9.93;5.93;;;4.30;99.90;3.50;100371;;;;580333;244;24149;-74
2023/04/11 01:48:15;;;;;;;10.37;6.53;;;4.30;99.90;3.50;100368;;;;577190;244;24111;-80
2023/04/11 01:50:42;;;;;;;8.77;6.57;;;4.30;99.90;3.50;100362;;;;577378;244;24118;-77
2023/04/11 01:53:10;;;;;;;11.47;7.20;;;4.30;99.90;3.50;100364;;;;580513;244;24098;-77
2023/04/11 01:55:38;;;;;;;11.60;6.27;;;4.30;99.90;3.50;100359;;;;580474;244;24053;-79
2023/04/11 01:58:06;;;;;;;9.83;6.40;;;4.40;99.90;3.50;100348;;;;580277;244;24134;-76
2023/04/11 02:00:35;;;;;;;12.00;6.70;;;4.40;99.90;3.50;100346;;;;589703;242;24147;-77
2023/04/11 02:03:06;;;;;;;12.93;7.50;;;4.40;99.90;3.50;100345;;;;581843;243;24063;-76
2023/04/11 02:05:30;;;;;;;13.33;7.47;;;4.30;99.90;3.50;100346;;;;581128;243;24088;-75
2023/04/11 02:07:58;;;;;;;11.73;8.10;;;4.30;99.90;3.40;100333;;;;581329;243;24088;-75
2023/04/11 02:10:27;;;;;;;12.27;7.63;;;4.30;99.90;3.40;100334;;;;581207;243;24116;-76
2023/04/11 02:12:58;;;;;;;13.57;8.00;;;4.30;99.90;3.40;100330;;;;581049;243;24095;-76
2023/04/11 02:15:23;;;;;;;15.37;7.27;;;4.30;99.90;3.40;100337;;;;589225;243;24112;-75
2023/04/11 02:17:52;;;;;;;18.47;7.97;;;4.20;99.90;3.30;100326;;;;581017;243;24105;-77
2023/04/11 02:20:22;;;;;;;12.80;6.77;;;4.20;99.90;3.30;100313;;;;580702;244;24070;-79
2023/04/11 02:22:50;;;;;;;14.07;7.07;;;4.20;99.90;3.40;100314;;;;580411;244;24094;-76
2023/04/11 02:25:18;;;;;;;9.63;5.83;;;4.20;99.90;3.40;100310;;;;580460;244;24103;-76
2023/04/11 02:27:46;;;;;;;9.93;7.13;;;4.20;99.90;3.40;100313;;;;580561;244;24119;-76
2023/04/11 02:30:14;;;;;;;8.43;6.10;;;4.30;99.90;3.50;100310;;;;580909;244;24187;-75
2023/04/11 02:32:42;;;;;;;9.03;6.10;;;4.40;99.90;3.50;100303;;;;580876;244;24136;-75
2023/04/11 02:35:10;;;;;;;10.20;6.93;;;4.30;99.90;3.60;100304;;;;580716;244;24072;-76
2023/04/11 02:37:37;;;;;;;12.03;6.73;;;4.40;99.90;3.60;100300;;;;580541;244;25096;-75
2023/04/11 02:40:06;;;;;;;7.93;5.87;;;4.50;99.90;3.60;100285;;;;580474;244;24072;-78
2023/04/11 02:42:34;;;;;;;13.07;6.43;;;4.50;99.90;3.60;100288;;;;580445;244;24062;-74
2023/04/11 02:45:02;;;;;;;14.63;5.70;;;4.50;99.90;3.60;100279;;;;580485;244;24068;-78
2023/04/11 02:47:29;;;;;;;11.17;6.60;;;4.50;99.90;3.60;100278;;;;580334;244;24105;-79
2023/04/11 02:49:57;;;;;;;10.43;6.67;;;4.50;99.90;3.70;100281;;;;580476;244;24083;-75
2023/04/11 02:52:25;;;;;;;9.80;5.53;;;4.50;99.90;3.70;100273;;;;580520;244;24107;-78
2023/04/11 02:54:53;;;;;;;9.53;7.63;;;4.60;99.90;3.80;100274;;;;580468;244;24099;-75
2023/04/11 02:57:21;;;;;;;12.00;6.83;;;4.60;99.90;3.90;100282;;;;580442;244;24096;-76
2023/04/11 02:59:49;;;;;;;11.87;6.37;;;4.70;99.90;3.90;100269;;;;580020;244;24092;-76
2023/04/11 03:02:18;;;;;;;12.77;7.33;;;4.70;99.90;3.90;100270;;;;580453;244;24100;-76
2023/04/11 03:04:46;;;;;;;15.17;7.70;;;4.70;99.90;3.80;100266;;;;580516;244;24078;-76
2023/04/11 03:07:14;;;;;;;16.30;7.27;;;4.70;99.90;3.80;100262;;;;580483;244;24060;-76
2023/04/11 03:09:41;;;;;;;11.47;7.60;;;4.70;99.90;3.80;100273;;;;580531;244;24101;-75
2023/04/11 03:12:10;;;;;;;9.70;6.80;;;4.60;99.90;3.80;100265;;;;580716;242;24057;-74
2023/04/11 03:14:38;;;;;;;12.10;7.40;;;4.60;99.90;3.70;100260;;;;581830;243;24071;-76
2023/04/11 03:17:06;;;;;;;13.03;6.90;;;4.60;99.90;3.70;100251;;;;581458;243;24121;-75
2023/04/11 03:19:34;;;;;;;12.27;7.57;;;4.60;99.90;3.70;100246;;;;581200;243;24212;-75
2023/04/11 03:22:03;;;;;;;17.85;10.65;;;4.60;99.90;3.70;100240;;;;576084;243;35181;-79
2023/04/11 03:24:35;;;;;;;14.93;7.90;;;4.50;99.90;3.60;100237;;;;580982;243;24098;-75
2023/04/11 03:27:00;;;;;;;9.97;7.30;;;4.50;99.90;3.60;100244;;;;577426;243;24100;-75
2023/04/11 03:29:27;;;;;;;12.20;6.53;;;4.40;99.90;3.50;100240;;;;581160;243;24058;-75
2023/04/11 03:31:55;;;;;;;11.97;7.47;;;4.40;99.90;3.60;100239;;;;581173;244;24062;-79
2023/04/11 03:34:24;;;;;;;19.83;11.63;;;4.40;99.90;3.60;100242;;;;576151;244;35140;-80
2023/04/11 03:36:53;;;;;;;15.00;8.13;;;4.40;99.90;3.60;100240;;;;581330;244;24105;-78
2023/04/11 03:39:19;;;;;;;10.57;6.90;;;4.40;99.90;3.70;100229;;;;580933;244;24131;-76
2023/04/11 03:41:47;;;;;;;19.77;8.47;;;4.50;99.90;3.70;100231;;;;590179;243;24134;-78
2023/04/11 03:44:14;;;;;;;11.77;7.30;;;4.50;99.90;3.70;100227;;;;581080;244;24091;-78
2023/04/11 03:46:43;;;;;;;12.77;7.63;;;4.50;99.90;3.70;100223;;;;580651;244;24126;-76
2023/04/11 03:49:11;;;;;;;12.03;6.87;;;4.50;99.90;3.70;100214;;;;580647;244;24071;-74
2023/04/11 03:51:39;;;;;;;9.83;6.67;;;4.50;99.90;3.70;100217;;;;580665;244;25097;-75
2023/04/11 03:54:07;;;;;;;12.57;7.20;;;4.50;99.90;3.70;100222;;;;580661;244;24083;-75
2023/04/11 03:56:35;;;;;;;14.53;8.83;;;4.50;99.90;3.80;100213;;;;580692;244;24084;-74
2023/04/11 03:59:07;;;;;;;18.77;10.77;;;4.60;99.90;3.80;100197;;;;580038;244;24129;-75
2023/04/11 04:01:31;;;;;;;17.17;9.73;;;4.60;99.90;3.80;100195;;;;580043;244;24117;-77
2023/04/11 04:03:59;;;;;;;13.87;10.37;;;4.60;99.90;3.80;100198;;;;589565;243;24112;-75
2023/04/11 04:06:28;;;;;;;13.03;8.87;;;4.70;99.90;3.80;100189;;;;580530;244;24136;-75
2023/04/11 04:08:55;;;;;;;16.00;9.37;;;4.60;99.90;3.90;100186;;;;580544;244;24192;-73
2023/04/11 04:11:23;;;;;;;17.87;11.37;;;4.70;99.90;4.00;100189;;;;580612;244;24050;-74
2023/04/11 04:13:51;;;;;;;17.17;9.70;;;4.70;99.90;4.00;100182;;;;580603;244;24115;-75
2023/04/11 04:16:19;;;;;;;12.20;9.43;;;4.80;99.90;4.00;100173;;;;580541;244;24071;-74
2023/04/11 04:18:49;;;;;;;14.57;8.83;;;4.80;99.90;4.10;100170;;;;580527;244;24117;-75
2023/04/11 04:21:15;;;;;;;15.90;8.03;;;4.90;99.90;4.20;100167;;;;580430;244;25121;-76
2023/04/11 04:23:48;;;;;;;12.67;8.77;;;4.90;99.90;4.30;100172;;;;577454;242;24126;-74
2023/04/11 04:26:12;;;;;;;14.57;8.13;;;5.10;99.90;4.30;100164;;;;581899;243;24069;-77
2023/04/11 04:28:42;;;;;;;14.23;9.57;;;5.10;99.90;4.50;100169;;;;581460;243;25198;-76
2023/04/11 04:31:07;;;;;;;14.27;8.70;;;5.20;99.90;4.60;100167;;;;581263;243;24082;-74
2023/04/11 04:33:34;;;;;;;13.80;8.23;;;5.40;99.90;4.70;100179;;;;576987;247;24088;-76
2023/04/11 04:36:06;;;;;;;18.13;8.43;;;5.50;99.90;4.90;100162;;;;569754;248;24104;-76
2023/04/11 04:38:33;;;;;;;12.20;8.37;;;5.60;99.90;5.00;100163;;;;578381;247;24110;-75
2023/04/11 04:40:59;;;;;;;14.30;8.47;;;5.90;99.90;5.20;100168;;;;578516;247;24128;-75
2023/04/11 04:43:31;;;;;;;17.10;9.90;;;5.90;99.90;5.30;100157;;;;569475;248;24192;-76
2023/04/11 04:45:55;;;;;;;18.17;8.97;;;6.10;99.90;5.50;100163;;;;572154;244;24099;-75
2023/04/11 04:48:24;;;;;;;15.50;9.07;;;6.30;99.90;5.80;100156;;;;580678;244;24069;-76
2023/04/11 04:50:51;;;;;;;15.23;8.93;;;6.70;99.90;6.00;100158;;;;576588;244;24080;-76
2023/04/11 04:53:19;;;;;;;16.43;7.90;;;6.70;99.90;6.20;100157;;;;576551;245;24076;-75
2023/04/11 04:55:47;;;;;;;14.20;9.00;;;6.90;99.90;6.50;100156;;;;576580;245;24050;-76
2023/04/11 04:58:15;;;;;;;10.73;8.37;;;7.20;99.90;6.90;100151;;;;576503;245;24155;-75
2023/04/11 05:00:44;;;;;;;16.87;10.00;;;8.60;99.90;8.10;100153;;;;576537;245;24062;-76
2023/04/11 05:03:16;;;;;;;14.90;9.77;;;9.90;99.90;9.50;100154;;;;586363;241;24129;-75
2023/04/11 05:05:40;;;;;;;16.23;10.07;;;9.80;99.90;10.50;100151;;;;600598;235;24041;-76
2023/04/11 05:08:08;;;;;;;16.47;9.93;;;10.90;99.90;11.40;100149;;;;600533;235;24055;-76
2023/04/11 05:10:36;;;;;;;16.87;10.17;;;11.90;99.90;12.20;100155;;;;600617;235;24073;-76
2023/04/11 05:13:05;;;;;;;16.73;10.90;;;13.40;99.90;12.90;100146;;;;600640;235;24069;-76
2023/04/11 05:15:33;;;;;;;18.37;10.27;;;14.20;99.90;13.70;100150;;;;600687;235;24046;-78
2023/04/11 05:18:01;;;;;;;14.60;11.30;;;14.20;99.90;14.40;100142;;;;597522;236;24072;-79
2023/04/11 05:20:29;;;;;;;16.27;10.73;;;14.90;99.90;15.20;100140;;;;577290;245;24055;-76
2023/04/11 05:22:57;;;;;;;12.73;10.77;;;15.70;99.90;16.10;100147;;;;577572;245;24100;-77
2023/04/11 05:25:25;;;;;;;15.17;11.57;;;16.50;99.90;16.30;100146;;;;575991;244;24111;-77
2023/04/11 05:27:54;;;;;;;19.50;11.93;;;17.50;99.20;16.70;100148;;;;568751;249;24091;-75
2023/04/11 05:30:22;;;;;;;15.83;11.00;;;17.90;97.60;17.20;100149;;;;568432;249;24052;-75
2023/04/11 05:32:50;;;;;;;19.67;10.97;;;17.90;97.60;17.80;100138;;;;578581;244;24055;-73
2023/04/11 05:35:20;;;;;;;17.93;12.30;;;19.10;94.60;18.40;100137;;;;576134;242;24025;-75
2023/04/11 05:37:51;;;;;;;18.57;11.73;;;19.70;92.10;19.10;100141;;;;577110;244;23115;-75
2023/04/11 05:40:16;;;;;;;12.47;11.20;;;19.60;92.00;19.60;100140;;;;576513;244;24064;-74
2023/04/11 05:42:44;;;;;;;15.63;11.73;;;20.20;90.30;20.10;100136;;;;576493;244;23095;-74
2023/04/11 05:45:12;;;;;;;17.63;11.87;;;21.20;84.10;20.60;100140;;;;579340;244;23129;-76
2023/04/11 05:47:41;;;;;;;18.37;12.57;;;21.50;80.70;20.80;100143;;;;576277;244;24125;-77
2023/04/11 05:50:10;;;;;;;16.37;12.10;;;21.60;78.40;20.90;100136;;;;576900;244;24049;-75
2023/04/11 05:52:38;;;;;;;16.60;12.37;;;21.60;78.00;20.80;100140;;;;580117;244;23073;-75
2023/04/11 05:55:10;;;;;;;23.10;12.83;;;21.50;77.80;20.80;100137;;;;571793;242;24109;-76
2023/04/11 05:57:34;;;;;;;16.87;12.20;;;21.50;77.00;20.90;100129;;;;575158;242;24120;-77
2023/04/11 06:00:11;;;;;;;17.40;12.47;;;21.50;76.30;20.90;100133;;;;576783;242;23172;-75
2023/04/11 06:02:31;;;;;;;18.20;13.07;;;21.60;76.70;21.40;100133;;;;584697;237;23083;-76
2023/04/11 06:04:58;;;;;;;15.97;12.20;;;21.90;75.40;21.70;100131;;;;583459;238;24077;-77
2023/04/11 06:07:29;;;;;;;19.53;13.07;;;22.30;72.80;21.60;100122;;;;574583;244;24034;-78
2023/04/11 06:09:58;;;;;;;19.73;13.23;;;22.40;71.50;21.80;100120;;;;578949;244;24008;-75
2023/04/11 06:12:25;;;;;;;16.87;12.40;;;22.50;71.50;22.40;100109;;;;577081;244;24035;-76
2023/04/11 06:14:56;;;;;;;17.10;13.93;;;22.90;70.70;22.90;100111;;;;568329;249;24124;-76
2023/04/11 06:17:20;;;;;;;16.43;12.97;;;23.40;68.80;22.90;100107;;;;567836;249;26279;-77
2023/04/11 06:19:48;;;;;;;14.67;13.17;;;23.60;67.40;23.30;100098;;;;578785;244;24056;-75
2023/04/11 06:22:16;;;;;;;14.43;12.93;;;23.90;66.20;23.60;100102;;;;578744;244;24066;-76
2023/04/11 06:24:48;;;;;;;17.83;12.47;;;24.20;65.60;23.80;100096;;;;578788;244;24068;-79
2023/04/11 06:27:15;;;;;;;16.10;13.07;;;24.40;64.00;23.80;100085;;;;568679;244;23072;-78
2023/04/11 06:29:43;;;;;;;14.97;13.33;;;24.50;63.40;23.90;100084;;;;583574;245;24056;-79
2023/04/11 06:32:08;;;;;;;16.57;12.73;;;24.70;62.80;24.00;100084;;;;578418;244;24091;-79
2023/04/11 06:34:39;;;;;;;14.77;13.37;;;24.80;62.80;24.50;100087;;;;584322;242;24082;-80
2023/04/11 06:37:04;;;;;;;21.23;13.37;;;25.10;62.70;24.80;100084;;;;581445;242;23080;-80
2023/04/11 06:39:35;;;;;;;15.37;13.87;;;25.40;61.50;25.10;100084;;;;584019;242;23063;-79
2023/04/11 06:42:04;;;;;;;21.80;13.50;;;25.70;61.00;25.60;100083;;;;584274;242;23117;-78
2023/04/11 06:44:28;;;;;;;15.20;13.17;;;26.10;60.70;26.10;100081;;;;582482;245;23074;-78
2023/04/11 06:46:57;;;;;;;19.80;13.67;;;26.60;58.60;26.20;100069;;;;588894;238;23091;-79
2023/04/11 06:49:23;;;;;;;15.83;12.80;;;26.60;57.60;26.00;100069;;;;578842;244;23076;-79
2023/04/11 06:51:53;;;;;;;13.60;12.23;;;26.60;57.70;25.50;100064;;;;578027;244;24105;-79
2023/04/11 06:54:23;;;;;;;20.57;13.00;;;26.40;57.30;24.60;100056;;;;568814;249;24095;-82
2023/04/11 06:56:51;;;;;;;15.00;13.50;;;25.70;58.10;24.30;100055;;;;578714;244;23081;-81
2023/04/11 06:59:18;;;;;;;15.37;12.87;;;25.20;59.30;24.10;100060;;;;573485;244;23082;-77
2023/04/11 07:01:43;;;;;;;16.20;12.93;;;24.90;59.70;23.50;100054;;;;589544;240;23049;-78
2023/04/11 07:04:12;;;;;;;15.33;13.73;;;23.90;62.30;22.90;100051;;;;579168;244;23060;-76
2023/04/11 07:06:43;;;;;;;21.50;13.07;;;23.50;63.70;22.70;100056;;;;578723;244;24102;-80
2023/04/11 07:09:14;;;;;;;15.17;13.27;;;23.50;63.60;22.50;100049;;;;593558;242;23107;-78
2023/04/11 07:11:42;;;;;;;14.80;12.43;;;23.20;64.80;22.40;100046;;;;589676;240;23098;-79
2023/04/11 07:14:10;;;;;;;17.03;12.83;;;23.00;65.00;22.40;100044;;;;579149;244;24074;-79
2023/04/11 07:16:38;;;;;;;18.20;12.60;;;22.90;65.60;22.60;100046;;;;579124;244;23332;-80
2023/04/11 07:19:06;;;;;;;17.17;12.93;;;23.00;65.70;22.90;100051;;;;579023;244;24037;-78
2023/04/11 07:21:36;;;;;;;13.70;12.40;;;23.30;65.60;23.10;100049;;;;578998;244;24050;-79
2023/04/11 07:24:02;;;;;;;13.50;11.73;;;23.50;65.10;23.90;100033;;;;576753;244;23070;-79
2023/04/11 07:26:31;;;;;;;15.30;12.70;;;24.10;64.40;24.50;100038;;;;578810;244;24160;-78
2023/04/11 07:29:01;;;;;;;15.90;11.27;;;25.50;61.70;25.30;100040;;;;575793;245;24161;-77
2023/04/11 07:31:27;;;;;;;18.43;11.60;;;26.40;60.30;26.20;100042;;;;574823;250;23099;-76
2023/04/11 07:33:56;;;;;;;13.43;11.70;;;27.20;59.30;26.90;100044;;;;572257;245;24182;-79
2023/04/11 07:36:25;;;;;;;13.03;11.73;;;27.50;57.90;27.00;100040;;;;576672;245;25164;-77
2023/04/11 07:38:53;;;;;;;12.93;11.23;;;28.00;57.30;27.60;100048;;;;576378;245;24096;-76
2023/04/11 07:41:23;;;;;;;12.67;10.73;;;27.90;57.30;28.10;100041;;;;576277;245;23061;-77
2023/04/11 07:43:51;;;;;;;15.77;11.30;;;28.60;56.30;28.60;100040;;;;576527;245;24132;-78
2023/04/11 07:46:19;;;;;;;19.50;11.77;;;29.10;56.00;29.70;100039;;;;581924;246;23084;-76
2023/04/11 07:48:48;;;;;;;13.45;10.75;;;30.50;53.20;29.70;100035;;;;570850;249;24113;-78
2023/04/11 07:51:16;;;;;;;14.82;10.73;;;30.50;53.80;29.60;100034;;;;577442;240;35204;-77
2023/04/11 07:53:44;;;;;;;12.73;9.60;;;30.50;52.60;29.60;100035;;;;565743;249;24161;-78
2023/04/11 07:56:12;;;;;;;10.35;8.93;;;30.40;53.00;29.10;100035;;;;574156;245;23133;-78
2023/04/11 07:58:40;;;;;;;9.13;8.20;;;30.20;52.90;27.90;100025;;;;572004;245;23121;-78
2023/04/11 08:01:08;;;;;;;10.70;9.60;;;29.30;52.90;26.50;100022;;;;577223;246;24120;-79
2023/04/11 08:03:36;;;;;;;10.97;9.40;;;28.10;54.60;25.80;100015;;;;565452;251;24160;-78
2023/04/11 08:06:03;;;;;;;10.37;9.30;;;27.10;56.30;25.50;100017;;;;572530;251;23126;-77
2023/04/11 08:08:31;;;;;;;10.40;9.40;;;26.50;57.60;25.10;100013;;;;576567;246;23083;-78
2023/04/11 08:10:59;;;;;;;12.00;9.13;;;26.10;58.30;24.80;100010;;;;582750;240;27305;-80
2023/04/11 08:13:28;;;;;;;14.40;9.85;;;25.50;59.90;24.70;100010;;;;578191;246;35207;-79
2023/04/11 08:15:57;;;;;;;10.43;9.53;;;25.60;60.10;25.00;100007;;;;591538;240;24034;-80
2023/04/11 08:18:25;;;;;;;13.13;11.00;;;25.60;60.10;25.20;99997;;;;582601;244;23095;-80
2023/04/11 08:20:53;;;;;;;10.83;9.33;;;25.80;59.60;25.30;100010;;;;582196;244;24034;-80
2023/04/11 08:23:21;;;;;;;10.70;9.50;;;26.00;59.20;25.40;99992;;;;579641;244;24059;-79
2023/04/11 08:25:52;;;;;;;11.97;9.43;;;26.00;59.10;25.40;99994;;;;582237;244;24066;-81
2023/04/11 08:28:17;;;;;;;10.90;8.53;;;26.10;59.20;25.50;99984;;;;582007;244;23106;-80
2023/04/11 08:30:45;;;;;;;10.30;8.33;;;26.10;59.70;25.50;99991;;;;568752;249;23052;-79
2023/04/11 08:33:17;;;;;;;9.03;8.13;;;26.30;58.00;25.10;99983;;;;583637;244;24131;-79
2023/04/11 08:35:41;;;;;;;8.50;7.70;;;26.00;58.30;25.30;99979;;;;573582;247;23097;-80
2023/04/11 08:38:11;;;;;;;9.27;7.30;;;26.10;58.20;25.30;99973;;;;567823;249;24125;-81
2023/04/11 08:40:38;;;;;;;13.77;7.37;;;26.10;58.20;25.10;99970;;;;574261;247;23170;-80
2023/04/11 08:43:10;;;;;;;8.10;7.03;;;25.90;58.00;25.60;99966;;;;567965;249;24106;-77
2023/04/11 08:45:34;;;;;;;11.70;6.67;;;26.10;58.20;26.00;99964;;;;575905;242;23068;-77
2023/04/11 08:48:02;;;;;;;8.57;6.50;;;26.50;57.80;26.60;99950;;;;576197;244;24082;-78
2023/04/11 08:50:33;;;;;;;12.13;6.90;;;27.10;57.00;26.70;99953;;;;578585;244;23070;-79
2023/04/11 08:53:04;;;;;;;9.23;5.57;;;27.40;55.40;26.60;99948;;;;578369;244;23134;-79
2023/04/11 08:55:32;;;;;;;12.07;5.80;;;27.30;55.50;26.30;99953;;;;584454;242;24102;-80
2023/04/11 08:58:01;;;;;;;7.63;5.60;;;27.10;55.40;26.00;99945;;;;577691;245;23111;-79
2023/04/11 09:00:31;;;;;;;9.83;5.63;;;26.80;55.90;25.80;99941;;;;582519;244;25239;-78
2023/04/11 09:03:01;;;;;;;9.60;5.37;;;26.60;56.20;25.50;99943;;;;571519;247;23134;-79
2023/04/11 09:05:32;;;;;;;11.47;5.87;;;26.30;56.50;25.20;99935;;;;564124;249;23107;-77
2023/04/11 09:08:01;;;;;;;10.47;5.43;;;26.00;56.90;24.40;99929;;;;589759;240;23076;-80
2023/04/11 09:10:33;;;;;;;13.80;5.30;;;25.40;57.10;24.10;99926;;;;577512;245;23130;-84
2023/04/11 09:12:57;;;;;;;10.73;5.30;;;25.00;58.00;23.70;99922;;;;591347;239;23092;-82
2023/04/11 09:15:31;;;;;;;5.80;4.83;;;24.60;58.50;23.30;99914;;;;581718;244;24105;-81
2023/04/11 09:17:56;;;;;;;9.30;4.90;;;24.20;58.80;23.00;99904;;;;589786;242;24113;-80
2023/04/11 09:20:30;;;;;;;10.70;5.03;;;23.90;59.40;22.60;99902;;;;584224;244;24093;-82
2023/04/11 09:22:58;;;;;;;14.60;5.87;;;23.50;60.70;22.80;99903;;;;575057;244;35063;-82
2023/04/11 09:25:29;;;;;;;8.97;5.90;;;23.50;60.60;23.10;99900;;;;577319;249;24072;-82
2023/04/11 09:28:09;;;;;;;11.40;6.53;;;23.80;61.30;23.10;99894;;;;579236;244;23121;-82
2023/04/11 09:30:40;;;;;;;11.93;5.27;;;23.90;61.30;23.80;99895;;;;566796;250;24082;-81
2023/04/11 09:33:24;;;;;;;11.50;5.13;;;25.20;58.10;24.60;99881;;;;588001;244;23095;-81
2023/04/11 09:35:51;;;;;;;13.33;6.43;;;25.20;58.10;25.70;99879;;;;588314;244;24048;-81
2023/04/11 09:38:37;;;;;;;12.57;5.33;;;26.20;57.20;27.40;99875;;;;577032;249;23123;-82
2023/04/11 09:41:06;;;;;;;10.87;5.47;;;27.90;55.70;28.50;99890;;;;579805;244;23052;-82
2023/04/11 09:43:55;;;;;;;14.77;5.20;;;29.30;52.50;28.60;99877;;;;577458;249;23108;-81
2023/04/11 09:46:24;;;;;;;9.35;5.20;;;29.80;51.10;28.60;99862;;;;577968;249;23100;-82
2023/04/11 09:48:48;;;;;;;8.35;4.43;;;30.00;50.80;29.40;99874;;;;577816;248;24105;-81
2023/04/11 09:51:16;;;;;;;7.78;5.12;;;30.60;49.80;29.00;99881;;;;574015;249;23188;-81
2023/04/11 09:53:44;;;;;;;7.32;4.97;;;29.70;50.20;27.90;99866;;;;579426;244;23044;-82
2023/04/11 09:56:16;;;;;;;9.80;5.65;;;29.70;50.20;27.40;99855;;;;579199;244;23034;-82
2023/04/11 09:58:40;;;;;;;15.05;5.85;;;29.10;50.70;26.70;99845;;;;577433;248;23104;-79
2023/04/11 10:01:09;;;;;;;16.37;5.95;;;27.60;52.20;26.00;99841;;;;574734;244;23032;-81
2023/04/11 10:03:37;;;;;;;21.07;5.47;;;27.50;52.10;25.70;99847;;;;576714;249;24059;-80
2023/04/11 10:06:07;;;;;;;46.73;6.90;;;27.10;52.60;25.10;99851;;;;581404;244;23079;-81
2023/04/11 10:08:38;;;;;;;18.33;5.80;;;26.50;52.90;24.10;99836;;;;568486;249;23223;-81
2023/04/11 10:11:09;;;;;;;25.23;6.80;;;25.50;54.10;23.10;99829;;;;583311;244;35163;-81
2023/04/11 10:13:43;;;;;;;12.20;6.57;;;24.50;56.00;22.50;99820;;;;579326;243;24204;-80
2023/04/11 10:16:14;;;;;;;17.87;5.77;;;23.80;57.50;22.30;99826;;;;587858;244;24112;-81
2023/04/11 10:18:55;;;;;;;14.73;6.07;;;23.20;58.90;21.80;99824;;;;569485;249;24074;-80
2023/04/11 10:21:31;;;;;;;6.77;6.03;;;22.80;60.10;21.60;99818;;;;575852;245;24108;-77
2023/04/11 10:24:15;;;;;;;12.83;6.03;;;21.90;62.00;21.10;99811;;;;589714;240;24036;-79
2023/04/11 10:26:56;;;;;;;10.63;5.20;;;21.90;62.00;20.90;99817;;;;582126;245;24118;-76
2023/04/11 10:29:41;;;;;;;7.73;4.67;;;21.60;62.70;20.90;99809;;;;578028;244;24073;-75
2023/04/11 10:32:17;;;;;;;9.23;5.60;;;21.40;63.50;20.60;99819;;;;585502;242;24036;-79
2023/04/11 10:34:50;;;;;;;19.37;5.40;;;21.40;63.50;20.30;99795;;;;569594;248;24086;-77
2023/04/11 10:37:34;;;;;;;15.13;5.07;;;21.10;63.60;20.10;99787;;;;578094;244;24061;-79
2023/04/11 10:40:20;;;;;;;17.00;5.27;;;20.90;64.10;20.00;99788;;;;598648;238;24033;-77
2023/04/11 10:42:43;;;;;;;5.33;4.57;;;20.70;64.60;19.60;99781;;;;579495;245;24086;-77
2023/04/11 10:45:25;;;;;;;15.40;5.20;;;20.40;64.90;19.40;99801;;;;578816;245;24119;-78
2023/04/11 10:47:56;;;;;;;7.20;4.57;;;20.10;66.40;19.40;99774;;;;578881;244;24068;-80
2023/04/11 10:50:35;;;;;;;6.10;4.87;;;20.00;66.90;19.40;99773;;;;571984;249;24107;-80
2023/04/11 10:53:13;;;;;;;5.63;3.90;;;19.90;67.20;19.50;99780;;;;577940;245;24085;-77
2023/04/11 10:55:31;;;;;;;12.80;5.17;;;20.00;67.40;19.30;99779;;;;584009;242;24059;-79
2023/04/11 10:58:06;;;;;;;11.67;5.97;;;19.90;68.00;19.10;99774;;;;587041;244;24065;-77
2023/04/11 11:00:49;;;;;;;11.03;5.13;;;19.80;68.50;18.90;99751;;;;578764;244;24051;-80
2023/04/11 11:03:32;;;;;;;16.20;5.00;;;19.60;69.20;18.70;99763;;;;581602;238;23085;-80
2023/04/11 11:06:00;;;;;;;5.57;5.07;;;19.40;70.40;18.60;99754;;;;584649;240;24034;-78
2023/04/11 11:08:31;;;;;;;14.33;5.67;;;19.20;71.50;18.60;99763;;;;589618;240;24035;-80
2023/04/11 11:11:05;;;;;;;6.53;5.40;;;19.20;71.40;18.60;99755;;;;589951;240;24023;-77
2023/04/11 11:13:55;;;;;;;7.20;4.43;;;19.20;71.10;18.70;99758;;;;590271;240;24050;-78
2023/04/11 11:16:19;;;;;;;7.20;4.43;;;19.30;71.40;18.70;99747;;;;590481;240;24080;-82
2023/04/11 11:18:47;;;;;;;10.70;5.50;;;19.20;71.40;18.70;99752;;;;600674;240;24010;-79